Time;durP1;ratioP1;P1;durP2;ratioP2;P2;SDS_P1;SDS_P2;PMS_P1;PMS_P2;Temp;Humidity;BMP_temperature;BMP_pressure;BME280_temperature;BME280_humidity;BME280_pressure;Samples;Min_cycle;Max_cycle;Signal;HPM_P1;HPM_P2
2023/10/03 00:00:44;;;;;;;16.85;6.55;;;;;;;12.90;100.00;101189.91;5576457;31;33807;-66
2023/10/03 00:03:49;;;;;;;16.45;6.22;;;;;;;12.84;100.00;101185.22;5589780;31;33770;-66
2023/10/03 00:06:52;;;;;;;17.45;6.18;;;;;;;12.81;100.00;101179.41;5589611;31;33859;-66
2023/10/03 00:09:56;;;;;;;20.90;6.07;;;;;;;12.73;100.00;101174.88;5589716;31;33833;-66
2023/10/03 00:12:59;;;;;;;16.37;6.40;;;;;;;12.70;100.00;101172.53;5589657;31;33783;-66
2023/10/03 00:16:03;;;;;;;14.68;6.05;;;;;;;12.63;100.00;101180.34;5588920;31;34701;-66
2023/10/03 00:19:06;;;;;;;19.02;6.50;;;;;;;12.61;100.00;101181.50;5575881;31;33798;-66
2023/10/03 00:22:09;;;;;;;19.48;6.28;;;;;;;12.58;100.00;101179.19;5589582;31;33845;-65
2023/10/03 00:25:23;;;;;;;20.30;6.68;;;;;;;12.59;100.00;101175.50;5575800;31;34040;-66
2023/10/03 00:28:26;;;;;;;17.00;6.55;;;;;;;12.58;100.00;101176.53;5589616;31;34155;-66
2023/10/03 00:31:29;;;;;;;15.23;6.53;;;;;;;12.59;100.00;101172.84;5575780;31;34495;-67
2023/10/03 00:34:36;;;;;;;19.90;6.87;;;;;;;12.55;100.00;101169.66;5589517;31;34512;-67
2023/10/03 00:37:39;;;;;;;14.40;6.28;;;;;;;12.51;100.00;101173.66;5575706;31;33805;-67
2023/10/03 00:40:55;;;;;;;17.20;6.78;;;;;;;12.48;100.00;101158.03;5589392;31;33790;-67
2023/10/03 00:44:01;;;;;;;17.17;6.75;;;;;;;12.45;100.00;101157.47;5589273;31;33886;-67
2023/10/03 00:47:07;;;;;;;17.40;6.45;;;;;;;12.41;100.00;101148.16;5589227;31;34702;-67
2023/10/03 00:50:10;;;;;;;23.20;7.05;;;;;;;12.38;100.00;101149.31;5589452;31;33990;-67
2023/10/03 00:53:14;;;;;;;16.12;7.07;;;;;;;12.33;100.00;101142.81;5589282;31;33852;-67
2023/10/03 00:56:19;;;;;;;16.33;6.75;;;;;;;12.28;100.00;101140.62;5575467;31;33747;-67
2023/10/03 00:59:22;;;;;;;16.37;6.55;;;;;;;12.25;100.00;101140.12;5589236;31;34037;-67
2023/10/03 01:02:27;;;;;;;18.77;7.07;;;;;;;12.23;100.00;101137.63;5589184;31;33908;-67
2023/10/03 01:05:30;;;;;;;18.05;6.43;;;;;;;12.19;100.00;101142.44;5589481;31;33903;-67
2023/10/03 01:08:36;;;;;;;20.27;7.03;;;;;;;12.20;100.00;101129.94;5589501;31;33908;-66
2023/10/03 01:11:40;;;;;;;19.95;6.32;;;;;;;12.13;100.00;101129.78;5589116;31;34518;-67
2023/10/03 01:14:43;;;;;;;14.27;6.35;;;;;;;12.09;100.00;101131.09;5589139;31;33848;-67
2023/10/03 01:17:49;;;;;;;18.65;6.78;;;;;;;12.09;100.00;101127.59;5588920;31;34070;-67
2023/10/03 01:20:55;;;;;;;15.32;6.65;;;;;;;12.04;100.00;101127.22;5588891;31;33808;-67
2023/10/03 01:23:59;;;;;;;13.32;6.12;;;;;;;12.01;100.00;101117.72;5588835;31;34490;-65
2023/10/03 01:27:01;;;;;;;15.75;6.85;;;;;;;12.05;100.00;101120.94;5588899;31;33931;-66
2023/10/03 01:30:06;;;;;;;13.95;6.15;;;;;;;12.00;100.00;101116.09;5588851;31;33910;-65
2023/10/03 01:33:10;;;;;;;18.30;6.07;;;;;;;12.01;100.00;101122.22;5588637;31;33913;-65
2023/10/03 01:36:14;;;;;;;16.02;6.70;;;;;;;12.07;100.00;101121.59;5575115;31;34518;-67
2023/10/03 01:39:17;;;;;;;16.70;6.10;;;;;;;12.01;100.00;101120.38;5588742;31;33825;-66
2023/10/03 01:42:22;;;;;;;15.43;6.28;;;;;;;12.05;100.00;101110.28;5588663;31;33948;-66
2023/10/03 01:45:27;;;;;;;12.48;6.57;;;;;;;12.00;100.00;101123.22;5588441;31;34633;-67
2023/10/03 01:48:29;;;;;;;14.98;6.68;;;;;;;12.02;100.00;101114.09;5588413;31;35487;-66
2023/10/03 01:51:33;;;;;;;16.73;6.85;;;;;;;12.00;100.00;101113.44;5588384;31;33970;-66
2023/10/03 01:54:36;;;;;;;16.08;6.40;;;;;;;11.95;100.00;101109.56;5588385;31;34423;-67
2023/10/03 01:57:40;;;;;;;15.50;6.30;;;;;;;11.98;100.00;101110.09;5574526;31;34774;-66
2023/10/03 02:00:43;;;;;;;12.15;5.72;;;;;;;11.96;100.00;101108.56;5588009;31;35003;-67
2023/10/03 02:03:46;;;;;;;13.20;6.12;;;;;;;11.94;100.00;101103.41;5588272;31;33848;-66
2023/10/03 02:06:49;;;;;;;12.95;6.12;;;;;;;12.02;100.00;101107.94;5588385;31;34519;-66
2023/10/03 02:09:55;;;;;;;13.10;5.95;;;;;;;11.99;100.00;101113.56;5588223;31;34589;-66
2023/10/03 02:12:58;;;;;;;12.30;6.12;;;;;;;11.90;100.00;101102.06;5588075;31;34452;-66
2023/10/03 02:16:01;;;;;;;18.27;6.50;;;;;;;11.87;100.00;101109.50;5588057;31;33766;-67
2023/10/03 02:19:06;;;;;;;17.87;6.35;;;;;;;11.86;100.00;101102.56;5587835;31;34764;-67
2023/10/03 02:22:11;;;;;;;18.52;6.10;;;;;;;11.86;100.00;101099.91;5587783;31;33944;-66
2023/10/03 02:25:14;;;;;;;13.25;6.03;;;;;;;11.84;100.00;101104.53;5587882;31;33817;-66
2023/10/03 02:28:18;;;;;;;14.50;6.00;;;;;;;11.83;100.00;101095.72;5587725;31;33800;-66
2023/10/03 02:31:21;;;;;;;13.68;6.10;;;;;;;11.77;100.00;101091.84;5587665;31;34578;-66
2023/10/03 02:34:25;;;;;;;13.98;6.25;;;;;;;11.77;100.00;101093.69;5587629;31;33969;-66
2023/10/03 02:37:28;;;;;;;13.93;5.68;;;;;;;11.75;100.00;101093.84;5573869;31;33819;-66
2023/10/03 02:40:32;;;;;;;12.82;6.35;;;;;;;11.75;100.00;101087.69;5589992;31;33832;-67
2023/10/03 02:43:42;;;;;;;14.00;5.93;;;;;;;11.75;100.00;101087.69;5590402;31;33806;-67
2023/10/03 02:46:48;;;;;;;14.32;6.05;;;;;;;11.71;100.00;101083.66;5590601;31;34668;-66
2023/10/03 02:49:51;;;;;;;16.98;6.30;;;;;;;11.69;100.00;101090.94;5590242;31;34720;-67
2023/10/03 02:52:59;;;;;;;12.43;6.37;;;;;;;11.63;100.00;101083.59;5590409;31;34606;-66
2023/10/03 02:56:07;;;;;;;14.25;6.20;;;;;;;11.60;100.00;101081.28;5590340;31;34443;-66
2023/10/03 02:59:10;;;;;;;13.80;6.15;;;;;;;11.60;100.00;101083.94;5590414;31;33992;-66
2023/10/03 03:02:14;;;;;;;17.25;6.40;;;;;;;11.58;100.00;101077.91;5590313;31;33845;-67
2023/10/03 03:05:17;;;;;;;15.23;6.50;;;;;;;11.56;100.00;101071.94;5590715;31;33914;-67
2023/10/03 03:11:28;;;;;;;13.73;6.28;;;;;;;11.51;100.00;101071.59;5590270;31;34466;-66
2023/10/03 03:14:32;;;;;;;14.35;6.30;;;;;;;11.54;100.00;101079.22;5576473;31;33798;-66
2023/10/03 03:17:35;;;;;;;13.32;6.35;;;;;;;11.48;100.00;101078.03;5590108;31;34554;-66
2023/10/03 03:20:42;;;;;;;14.82;6.40;;;;;;;11.46;100.00;101076.53;5590035;31;34158;-66
2023/10/03 03:24:00;;;;;;;13.25;6.20;;;;;;;11.44;100.00;101068.72;5590441;31;33725;-66
2023/10/03 03:27:11;;;;;;;13.88;6.43;;;;;;;11.42;100.00;101072.53;5576287;31;33989;-66
2023/10/03 03:33:28;;;;;;;13.20;6.30;;;;;;;11.42;100.00;101070.72;5589954;31;34041;-66
2023/10/03 03:36:34;;;;;;;17.73;6.28;;;;;;;11.40;100.00;101058.56;5589950;31;33827;-68
2023/10/03 03:39:37;;;;;;;12.45;6.20;;;;;;;11.40;100.00;101062.03;5589973;31;34549;-68
2023/10/03 03:42:41;;;;;;;14.75;6.80;;;;;;;11.34;100.00;101054.69;5590171;31;34869;-67
2023/10/03 03:45:44;;;;;;;16.58;6.30;;;;;;;11.39;100.00;101056.88;5589680;31;34471;-67
2023/10/03 03:48:47;;;;;;;15.70;6.00;;;;;;;11.38;100.00;101061.34;5589848;31;33861;-68
2023/10/03 03:51:50;;;;;;;17.20;6.45;;;;;;;11.34;100.00;101057.34;5588434;31;34157;-68
2023/10/03 03:54:54;;;;;;;14.27;6.43;;;;;;;11.30;100.00;101062.16;5576117;31;33943;-67
2023/10/03 03:57:59;;;;;;;17.08;6.57;;;;;;;11.30;100.00;101062.16;5589977;31;33770;-68
2023/10/03 04:01:06;;;;;;;10.05;5.65;;;;;;;11.27;100.00;101057.16;5589867;31;34005;-67
2023/10/03 04:04:12;;;;;;;14.60;6.43;;;;;;;11.23;100.00;101053.13;5576075;31;33964;-67
2023/10/03 04:07:16;;;;;;;16.73;7.03;;;;;;;11.24;100.00;101044.16;5589708;31;34534;-67
2023/10/03 04:10:19;;;;;;;15.82;7.07;;;;;;;11.23;100.00;101044.34;5575882;31;35305;-67
2023/10/03 04:13:22;;;;;;;14.93;6.32;;;;;;;11.20;100.00;101049.94;5589797;31;33824;-68
2023/10/03 04:16:26;;;;;;;16.12;6.85;;;;;;;11.20;100.00;101049.94;5589795;31;34905;-68
2023/10/03 04:19:30;;;;;;;14.87;6.20;;;;;;;11.18;100.00;101049.28;5589671;31;33953;-67
2023/10/03 04:22:33;;;;;;;15.05;6.97;;;;;;;11.16;100.00;101049.44;5575733;31;34187;-67
2023/10/03 04:25:37;;;;;;;16.35;6.45;;;;;;;11.15;100.00;101049.59;5575915;31;34099;-67
2023/10/03 04:28:40;;;;;;;13.13;6.12;;;;;;;11.14;100.00;101055.88;5589587;31;33929;-67
2023/10/03 04:31:44;;;;;;;15.85;6.50;;;;;;;11.13;100.00;101059.53;5589460;31;34402;-67
2023/10/03 04:34:47;;;;;;;14.82;6.22;;;;;;;11.12;100.00;101057.87;5588539;31;34583;-67
2023/10/03 04:37:52;;;;;;;14.77;6.50;;;;;;;11.10;100.00;101062.50;5589436;31;33912;-68
2023/10/03 04:40:55;;;;;;;21.17;6.15;;;;;;;11.11;100.00;101058.84;5589242;31;34434;-68
2023/10/03 04:44:01;;;;;;;14.20;6.65;;;;;;;11.12;100.00;101057.87;5589080;31;33882;-68
2023/10/03 04:47:04;;;;;;;14.32;6.78;;;;;;;11.12;100.00;101057.87;5589501;31;33969;-67
2023/10/03 04:50:10;;;;;;;16.70;6.78;;;;;;;11.14;100.00;101062.03;5588963;31;33899;-69
2023/10/03 04:53:16;;;;;;;12.75;6.50;;;;;;;11.19;100.00;101046.47;5588283;31;34727;-67
2023/10/03 04:56:18;;;;;;;16.40;7.20;;;;;;;11.22;100.00;101048.00;5588924;31;34860;-67
2023/10/03 04:59:21;;;;;;;15.65;6.95;;;;;;;11.23;100.00;101050.47;5589030;31;33895;-67
2023/10/03 05:02:25;;;;;;;15.57;7.05;;;;;;;11.23;100.00;101054.97;5588503;31;34531;-67
2023/10/03 05:05:28;;;;;;;11.32;6.45;;;;;;;11.21;100.00;101051.63;5589418;31;34063;-67
2023/10/03 05:08:31;;;;;;;15.18;7.07;;;;;;;11.25;100.00;101059.12;5589035;31;33798;-66
2023/10/03 05:11:34;;;;;;;18.62;7.62;;;;;;;11.25;100.00;101047.66;5589042;31;33794;-67
2023/10/03 05:14:40;;;;;;;16.15;7.35;;;;;;;11.32;100.00;101054.88;5588867;31;34109;-67
2023/10/03 05:17:44;;;;;;;16.35;7.37;;;;;;;11.33;100.00;101050.37;5588769;31;34461;-67
2023/10/03 05:20:49;;;;;;;15.43;7.60;;;;;;;11.40;100.00;101048.75;5589035;31;34258;-67
2023/10/03 05:23:52;;;;;;;19.30;7.37;;;;;;;11.47;100.00;101060.44;5588669;31;34728;-68
2023/10/03 05:26:56;;;;;;;16.50;7.15;;;;;;;11.56;100.00;101062.16;5574942;31;33920;-67
2023/10/03 05:29:59;;;;;;;15.40;7.43;;;;;;;11.62;100.00;101048.22;5588556;31;34047;-67
2023/10/03 05:33:04;;;;;;;23.87;7.85;;;;;;;11.70;100.00;101056.25;5588549;31;33864;-67
2023/10/03 05:36:14;;;;;;;22.33;7.65;;;;;;;11.80;100.00;101060.66;5588622;31;33787;-67
2023/10/03 05:39:18;;;;;;;18.67;7.80;;;;;;;11.84;100.00;101054.84;5574448;31;34509;-67
2023/10/03 05:42:23;;;;;;;15.55;7.05;;;;;;;11.90;100.00;101045.41;5588111;31;34584;-67
2023/10/03 05:45:27;;;;;;;22.67;7.62;;;;;;;11.99;100.00;101057.72;5588104;31;33812;-67
2023/10/03 05:48:30;;;;;;;16.08;7.60;;;;;;;12.10;100.00;101063.56;5574219;31;34506;-67
2023/10/03 05:51:35;;;;;;;15.60;6.82;;;;;;;12.15;100.00;101058.59;5574200;31;33767;-67
2023/10/03 05:54:38;;;;;;;18.25;7.43;;;;;;;12.23;100.00;101062.31;5587875;31;34132;-68
2023/10/03 05:57:42;;;;;;;16.55;8.10;;;;;;;12.28;100.00;101062.66;5587496;31;34239;-67
2023/10/03 06:00:46;;;;;;;18.62;7.05;;;;;;;12.41;100.00;101061.19;5588129;31;32613;-67
2023/10/03 06:03:49;;;;;;;19.80;7.22;;;;;;;12.46;100.00;101071.34;5587568;31;34434;-67
2023/10/03 06:06:52;;;;;;;19.20;7.32;;;;;;;12.55;100.00;101075.69;5574094;31;34010;-67
2023/10/03 06:09:56;;;;;;;22.77;7.87;;;;;;;12.67;100.00;101082.38;5587534;31;34532;-67
2023/10/03 06:12:58;;;;;;;22.48;7.22;;;;;;;12.79;100.00;101082.88;5587646;31;34035;-67
2023/10/03 06:16:05;;;;;;;15.75;7.05;;;;;;;12.92;100.00;101084.06;5576586;31;34555;-67
2023/10/03 06:19:08;;;;;;;19.37;7.10;;;;;;;13.04;100.00;101088.06;5590967;31;34478;-67
2023/10/03 06:22:12;;;;;;;19.90;7.43;;;;;;;13.14;100.00;101079.09;5589989;31;33810;-67
2023/10/03 06:25:15;;;;;;;19.20;7.55;;;;;;;13.26;100.00;101091.91;5589470;31;33991;-67
2023/10/03 06:28:18;;;;;;;23.45;7.47;;;;;;;13.37;100.00;101086.22;5589467;31;34156;-66
2023/10/03 06:31:21;;;;;;;25.88;8.38;;;;;;;13.49;100.00;101081.37;5590227;31;34888;-66
2023/10/03 06:34:25;;;;;;;29.70;7.40;;;;;;;13.58;100.00;101077.69;5590196;31;33960;-66
2023/10/03 06:37:28;;;;;;;15.98;7.20;;;;;;;13.66;100.00;101080.34;5589949;31;33894;-66
2023/10/03 06:40:31;;;;;;;24.42;11.73;;;;;;;13.75;100.00;101081.97;5589980;31;34116;-66
2023/10/03 06:43:33;;;;;;;18.60;6.87;;;;;;;13.85;100.00;101079.94;5589535;31;33874;-66
2023/10/03 06:46:37;;;;;;;17.23;7.10;;;;;;;13.92;100.00;101080.09;5589502;31;34076;-66
2023/10/03 06:49:41;;;;;;;21.58;6.75;;;;;;;14.05;100.00;101080.38;5590025;31;33833;-66
2023/10/03 06:52:44;;;;;;;19.02;6.55;;;;;;;14.26;100.00;101077.94;5589976;31;34068;-66
2023/10/03 06:55:49;;;;;;;12.43;6.00;;;;;;;14.38;100.00;101081.06;5589628;31;34201;-66
2023/10/03 06:58:52;;;;;;;22.27;6.18;;;;;;;14.66;100.00;101086.75;5575998;31;34872;-66
2023/10/03 07:01:55;;;;;;;14.25;6.40;;;;;;;14.63;100.00;101090.59;5589700;31;33986;-66
2023/10/03 07:04:58;;;;;;;17.60;6.15;;;;;;;14.77;100.00;101089.00;5589693;31;33790;-66
2023/10/03 07:08:02;;;;;;;18.83;6.85;;;;;;;14.88;100.00;101093.09;5589471;31;34542;-66
2023/10/03 07:11:12;;;;;;;18.45;7.40;;;;;;;15.06;100.00;101088.28;5589508;31;34546;-66
2023/10/03 07:14:16;;;;;;;288.73;18.12;;;;;;;15.27;100.00;101087.59;5589295;31;34567;-66
2023/10/03 07:17:19;;;;;;;25.45;6.85;;;;;;;15.47;100.00;101086.91;5589534;31;35218;-67
2023/10/03 07:20:22;;;;;;;19.30;6.82;;;;;;;15.81;100.00;101082.91;5589129;31;34915;-67
2023/10/03 07:23:25;;;;;;;18.55;6.60;;;;;;;16.08;100.00;101088.44;5589104;31;33951;-68
2023/10/03 07:26:28;;;;;;;19.70;6.85;;;;;;;16.45;100.00;101086.62;5589457;31;33966;-66
2023/10/03 07:29:32;;;;;;;18.48;7.03;;;;;;;16.38;100.00;101091.88;5576327;31;34104;-66
2023/10/03 07:32:35;;;;;;;18.37;7.00;;;;;;;16.84;100.00;101103.16;5589614;31;36642;-67
2023/10/03 07:35:41;;;;;;;15.50;6.65;;;;;;;18.06;100.00;101101.81;5589507;31;33817;-66
2023/10/03 07:38:45;;;;;;;20.00;6.40;;;;;;;19.61;83.49;101099.06;5589471;31;33868;-66
2023/10/03 07:41:51;;;;;;;19.82;6.48;;;;;;;21.33;74.40;101100.78;5589238;31;33896;-67
2023/10/03 07:44:54;;;;;;;19.15;6.87;;;;;;;23.51;62.49;101104.25;5589444;31;33998;-67
2023/10/03 07:48:04;;;;;;;17.42;6.50;;;;;;;23.61;55.13;101099.09;5575517;31;34147;-67
2023/10/03 07:51:15;;;;;;;16.75;5.70;;;;;;;24.66;51.94;101114.06;5589444;31;33869;-67
2023/10/03 07:54:19;;;;;;;18.25;6.10;;;;;;;25.74;51.44;101112.13;5589586;31;34893;-68
2023/10/03 07:57:23;;;;;;;16.62;5.95;;;;;;;26.68;47.80;101112.75;5589327;31;34106;-67
2023/10/03 08:00:26;;;;;;;13.95;6.30;;;;;;;26.94;44.57;101108.44;5589809;31;33771;-68
2023/10/03 08:03:30;;;;;;;14.35;6.28;;;;;;;26.35;45.23;101106.44;5589430;31;34609;-68
2023/10/03 08:06:34;;;;;;;22.80;6.00;;;;;;;27.67;43.06;101107.69;5589463;31;33801;-68
2023/10/03 08:09:37;;;;;;;22.13;6.28;;;;;;;28.20;43.25;101112.06;5589529;31;33850;-69
2023/10/03 08:12:40;;;;;;;16.87;5.78;;;;;;;29.51;39.94;101108.75;5589384;31;34465;-68
2023/10/03 08:15:43;;;;;;;44.08;6.72;;;;;;;29.34;39.74;101106.31;5575615;31;33898;-68
2023/10/03 08:18:58;;;;;;;19.52;6.15;;;;;;;30.93;37.57;101102.72;5575451;31;34141;-69
2023/10/03 08:22:01;;;;;;;16.20;6.20;;;;;;;31.05;36.08;101103.19;5589016;31;33770;-69
2023/10/03 08:25:05;;;;;;;18.37;6.12;;;;;;;31.02;36.10;101103.78;5589348;31;33826;-69
2023/10/03 08:28:10;;;;;;;18.62;6.37;;;;;;;31.63;34.88;101108.72;5589132;31;33977;-69
2023/10/03 08:31:14;;;;;;;17.92;5.95;;;;;;;31.05;35.87;101103.19;5589055;31;33775;-68
2023/10/03 08:34:19;;;;;;;13.02;5.95;;;;;;;27.65;42.10;101083.41;5575494;31;34822;-68
2023/10/03 08:37:22;;;;;;;27.80;6.43;;;;;;;27.15;42.03;101085.75;5588472;31;32611;-69
2023/10/03 08:40:26;;;;;;;22.42;6.18;;;;;;;23.79;52.56;101072.69;5589144;31;33832;-69
2023/10/03 08:43:29;;;;;;;21.30;6.65;;;;;;;22.78;56.92;101067.53;5589313;31;34027;-68
2023/10/03 08:46:36;;;;;;;17.58;6.65;;;;;;;21.76;64.38;101054.84;5588866;31;33812;-68
2023/10/03 08:49:40;;;;;;;20.15;6.72;;;;;;;21.39;67.22;101055.88;5589031;31;33918;-68
2023/10/03 08:52:47;;;;;;;68.40;8.32;;;;;;;21.00;72.93;101048.91;5588938;31;34663;-67
2023/10/03 08:55:50;;;;;;;16.90;6.57;;;;;;;20.64;82.25;101045.03;5588866;31;34222;-68
2023/10/03 08:58:53;;;;;;;22.98;7.15;;;;;;;20.29;85.25;101041.03;5588852;31;34693;-67
2023/10/03 09:02:01;;;;;;;16.80;7.20;;;;;;;20.25;86.63;101043.34;5588878;31;34545;-67
2023/10/03 09:05:15;;;;;;;26.85;7.70;;;;;;;20.05;87.06;101039.91;5588923;31;33859;-67
2023/10/03 09:08:18;;;;;;;25.60;7.30;;;;;;;19.90;93.54;101039.34;5575397;31;35280;-67
2023/10/03 09:11:21;;;;;;;19.55;6.97;;;;;;;19.88;96.44;101028.81;5588799;31;34438;-66
2023/10/03 09:14:24;;;;;;;17.52;7.00;;;;;;;19.87;98.58;101026.31;5574899;31;34841;-67
2023/10/03 09:17:28;;;;;;;35.10;7.25;;;;;;;19.98;99.20;101027.53;5588471;31;33886;-68
2023/10/03 09:20:34;;;;;;;40.72;7.70;;;;;;;20.05;99.43;101017.53;5588448;31;34815;-67
2023/10/03 09:24:09;;;;;;;21.33;6.97;;;;;;;20.05;98.91;101026.44;5574746;31;33851;-67
2023/10/03 09:27:17;;;;;;;21.40;7.32;;;;;;;20.01;100.00;101017.13;5588596;31;33860;-68
2023/10/03 09:30:23;;;;;;;17.05;6.60;;;;;;;19.93;100.00;101012.00;5574673;31;34197;-68
2023/10/03 09:33:26;;;;;;;27.30;7.50;;;;;;;20.27;98.02;100998.16;5574883;31;34019;-68
2023/10/03 09:36:35;;;;;;;18.02;6.75;;;;;;;20.31;100.00;100998.56;5588323;31;33768;-68
2023/10/03 09:39:48;;;;;;;29.85;7.32;;;;;;;20.47;100.00;100995.38;5588499;31;33965;-69
2023/10/03 09:42:56;;;;;;;22.13;7.03;;;;;;;20.62;100.00;101001.25;5588144;31;33823;-69
2023/10/03 09:46:00;;;;;;;19.08;6.75;;;;;;;20.82;92.61;101001.09;5574808;31;33908;-68
2023/10/03 09:49:08;;;;;;;15.05;6.45;;;;;;;20.88;98.04;100983.22;5589675;31;34500;-70
2023/10/03 09:52:26;;;;;;;13.57;5.95;;;;;;;21.05;90.96;101004.06;5590774;31;34479;-68
2023/10/03 09:55:46;;;;;;;14.50;6.60;;;;;;;21.24;88.33;100992.28;5590528;31;33874;-70
2023/10/03 09:58:51;;;;;;;15.68;5.97;;;;;;;21.43;83.31;100995.00;5591267;31;33841;-68
2023/10/03 10:01:56;;;;;;;18.40;5.80;;;;;;;21.55;85.93;100994.00;5576924;31;33957;-69
2023/10/03 10:05:19;;;;;;;17.20;5.12;;;;;;;21.67;80.33;100991.41;5577418;31;33845;-68
2023/10/03 10:08:34;;;;;;;20.80;5.55;;;;;;;21.76;80.60;100998.12;5590134;31;33815;-70
2023/10/03 10:12:10;;;;;;;17.35;4.53;;;;;;;21.84;82.86;100987.03;5590530;31;35177;-69
2023/10/03 10:18:45;;;;;;;12.45;4.97;;;;;;;22.06;80.06;100974.72;5589985;31;34508;-69
2023/10/03 10:21:51;;;;;;;14.25;5.90;;;;;;;22.20;79.29;100977.22;5590366;31;34489;-69
2023/10/03 10:25:28;;;;;;;19.10;5.37;;;;;;;22.28;74.40;100969.63;5563950;31;33826;-69
2023/10/03 10:28:34;;;;;;;18.23;5.20;;;;;;;22.43;71.70;100970.03;5589317;31;34765;-67
2023/10/03 10:31:42;;;;;;;14.82;5.50;;;;;;;22.54;71.94;100963.00;5590227;31;35081;-67
2023/10/03 10:34:48;;;;;;;17.77;5.07;;;;;;;22.56;69.11;100962.78;5590136;31;34702;-67
2023/10/03 10:37:52;;;;;;;15.15;5.65;;;;;;;22.58;68.01;100964.19;5576884;31;34406;-67
2023/10/03 10:41:18;;;;;;;15.65;5.10;;;;;;;22.66;69.61;100957.59;5592204;31;33987;-68
2023/10/03 10:44:21;;;;;;;14.02;4.40;;;;;;;22.76;67.40;100947.06;5578610;31;34663;-67
2023/10/03 10:47:27;;;;;;;10.75;4.57;;;;;;;22.89;66.81;100947.69;5589958;31;33767;-69
2023/10/03 10:51:02;;;;;;;12.35;4.45;;;;;;;23.16;69.18;100936.34;5590185;31;33866;-68
2023/10/03 10:54:05;;;;;;;13.85;4.32;;;;;;;23.43;64.38;100936.69;5590478;31;34566;-68
2023/10/03 10:57:14;;;;;;;10.65;4.00;;;;;;;23.62;62.13;100930.91;5590428;31;33999;-69
2023/10/03 11:00:21;;;;;;;13.90;4.37;;;;;;;25.84;53.97;100932.84;5589380;31;34511;-69
2023/10/03 11:03:25;;;;;;;15.02;4.30;;;;;;;29.91;44.70;100931.97;5576475;31;33432;-69
2023/10/03 11:06:29;;;;;;;10.38;3.90;;;;;;;30.82;40.39;100937.59;5590069;31;34156;-69
2023/10/03 11:09:39;;;;;;;9.43;3.80;;;;;;;31.46;38.68;100928.97;5576432;31;33911;-68
2023/10/03 11:12:41;;;;;;;7.53;3.22;;;;;;;31.24;37.32;100925.94;5590015;31;34434;-70
2023/10/03 11:16:04;;;;;;;10.10;3.40;;;;;;;31.11;37.90;100926.62;5590003;31;33915;-71
2023/10/03 11:19:07;;;;;;;15.95;3.20;;;;;;;31.01;37.42;100922.09;5576140;31;33946;-71
2023/10/03 11:22:12;;;;;;;8.40;3.47;;;;;;;32.17;35.58;100916.22;5589944;31;33810;-71
2023/10/03 11:25:16;;;;;;;9.25;3.35;;;;;;;33.92;32.78;100904.91;5589780;31;33796;-71
2023/10/03 11:28:18;;;;;;;8.43;3.60;;;;;;;34.84;31.40;100914.50;5589541;31;34154;-70
2023/10/03 11:31:21;;;;;;;13.18;3.22;;;;;;;35.62;30.00;100907.31;5590337;31;33795;-69
2023/10/03 11:34:31;;;;;;;10.52;3.12;;;;;;;34.03;31.85;100905.50;5589370;31;34884;-70
2023/10/03 11:37:44;;;;;;;11.18;3.35;;;;;;;34.72;30.55;100904.06;5576063;31;33989;-70
2023/10/03 11:40:49;;;;;;;17.23;3.15;;;;;;;35.84;29.40;100903.62;5589675;31;33925;-70
2023/10/03 11:43:52;;;;;;;9.82;3.30;;;;;;;35.35;29.81;100902.88;5575600;31;33910;-71
2023/10/03 11:46:55;;;;;;;14.95;3.40;;;;;;;34.57;30.19;100890.66;5589311;31;33872;-71
2023/10/03 11:49:59;;;;;;;9.18;2.87;;;;;;;37.00;28.20;100892.25;5589453;31;34444;-71
2023/10/03 11:53:02;;;;;;;6.45;2.78;;;;;;;34.64;30.13;100882.75;5590103;31;34008;-70
2023/10/03 11:56:06;;;;;;;14.30;2.83;;;;;;;33.84;31.15;100874.56;5575639;31;33860;-71
2023/10/03 11:59:16;;;;;;;9.73;3.10;;;;;;;34.99;30.62;100869.16;5589529;31;34092;-70
2023/10/03 12:02:19;;;;;;;8.45;2.85;;;;;;;33.99;30.85;100861.22;5589546;31;33861;-69
2023/10/03 12:05:23;;;;;;;6.90;2.62;;;;;;;35.50;29.20;100854.69;5589606;31;33840;-70
2023/10/03 12:08:26;;;;;;;12.60;3.28;;;;;;;34.09;30.60;100856.59;5575670;31;34277;-71
2023/10/03 12:11:29;;;;;;;8.82;2.30;;;;;;;35.68;28.85;100840.63;5574725;31;33868;-71
2023/10/03 12:14:32;;;;;;;9.57;3.10;;;;;;;33.75;31.58;100844.19;5589478;31;33450;-70
2023/10/03 12:17:35;;;;;;;10.18;2.58;;;;;;;34.36;30.13;100849.06;5589295;31;32865;-71
2023/10/03 12:20:38;;;;;;;7.30;2.80;;;;;;;34.40;30.02;100843.72;5589093;31;34011;-70
2023/10/03 12:23:43;;;;;;;7.82;2.80;;;;;;;35.54;28.84;100831.66;5589353;31;34526;-70
2023/10/03 12:26:48;;;;;;;6.03;3.00;;;;;;;32.49;32.83;100833.81;5589862;31;33863;-71
2023/10/03 12:29:51;;;;;;;7.75;2.60;;;;;;;31.37;34.76;100828.47;5575780;31;32778;-71
2023/10/03 12:32:54;;;;;;;8.55;2.85;;;;;;;32.19;33.65;100816.00;5589600;31;33731;-70
2023/10/03 12:36:02;;;;;;;13.73;3.00;;;;;;;32.41;33.27;100817.25;5575555;31;34576;-70
2023/10/03 12:39:11;;;;;;;8.40;2.75;;;;;;;32.44;33.28;100808.38;5589306;31;34746;-70
2023/10/03 12:42:16;;;;;;;6.75;2.53;;;;;;;30.46;36.19;100811.13;5589388;31;34881;-70
2023/10/03 12:45:20;;;;;;;8.18;2.42;;;;;;;30.22;36.77;100810.22;5588936;31;33915;-70
2023/10/03 12:48:23;;;;;;;9.75;2.85;;;;;;;29.06;38.87;100800.84;5575559;31;33881;-70
2023/10/03 12:51:27;;;;;;;12.37;2.70;;;;;;;28.57;40.40;100795.22;5589245;31;33944;-70
2023/10/03 12:54:30;;;;;;;9.57;2.92;;;;;;;28.16;41.89;100789.03;5589044;31;34052;-70
2023/10/03 12:57:33;;;;;;;6.85;2.90;;;;;;;27.03;43.22;100791.78;5588850;31;33944;-69
2023/10/03 13:00:36;;;;;;;7.60;2.90;;;;;;;26.56;44.37;100789.09;5589041;31;34199;-70
2023/10/03 13:03:39;;;;;;;14.25;2.92;;;;;;;26.48;44.83;100778.69;5588993;31;34062;-68
2023/10/03 13:06:42;;;;;;;11.00;2.92;;;;;;;25.74;45.49;100777.81;5588886;31;33383;-69
2023/10/03 13:09:46;;;;;;;8.30;3.53;;;;;;;25.75;46.26;100769.41;5574983;31;33871;-68
2023/10/03 13:12:51;;;;;;;10.30;3.03;;;;;;;25.87;45.96;100772.78;5588590;31;33788;-68
2023/10/03 13:15:55;;;;;;;6.87;3.00;;;;;;;25.84;46.70;100762.44;5575370;31;34092;-68
2023/10/03 13:19:00;;;;;;;16.17;3.72;;;;;;;25.62;46.98;100767.09;5588639;31;33887;-69
2023/10/03 13:22:04;;;;;;;8.95;3.15;;;;;;;25.43;48.96;100763.91;5574471;31;33841;-69
2023/10/03 13:25:09;;;;;;;16.08;3.30;;;;;;;25.28;48.48;100754.78;5588517;31;34847;-69
2023/10/03 13:28:13;;;;;;;14.02;3.08;;;;;;;25.38;50.43;100749.44;5575160;31;34450;-69
2023/10/03 13:31:16;;;;;;;7.37;2.60;;;;;;;25.33;50.02;100746.69;5574846;31;34497;-69
2023/10/03 13:34:20;;;;;;;10.73;2.95;;;;;;;25.26;49.74;100746.91;5588412;31;33901;-69
2023/10/03 13:37:24;;;;;;;7.55;3.20;;;;;;;25.32;49.79;100726.06;5588840;31;33792;-69
2023/10/03 13:40:28;;;;;;;42.90;3.97;;;;;;;25.21;49.57;100735.16;5588210;31;34163;-69
2023/10/03 13:43:31;;;;;;;65.78;4.87;;;;;;;25.45;50.37;100736.50;5588618;31;33916;-69
2023/10/03 13:46:34;;;;;;;11.48;3.10;;;;;;;25.46;49.07;100730.78;5587416;31;33777;-69
2023/10/03 13:49:36;;;;;;;30.12;3.70;;;;;;;25.28;48.89;100731.16;5588152;31;33904;-68
2023/10/03 13:52:40;;;;;;;8.45;2.70;;;;;;;25.16;50.36;100724.25;5574340;31;33977;-69
2023/10/03 13:55:45;;;;;;;28.35;3.53;;;;;;;25.07;50.82;100716.56;5587961;31;34440;-68
2023/10/03 13:58:49;;;;;;;11.23;2.70;;;;;;;25.12;50.88;100717.69;5587813;31;34582;-69
2023/10/03 14:01:54;;;;;;;13.90;2.85;;;;;;;25.16;50.67;100713.38;5587707;31;34291;-69
2023/10/03 14:04:57;;;;;;;21.10;3.67;;;;;;;24.99;51.58;100713.47;5587638;31;33885;-69
2023/10/03 14:08:00;;;;;;;25.80;3.50;;;;;;;24.87;53.29;100704.66;5573997;31;34555;-68
2023/10/03 14:11:04;;;;;;;7.47;2.80;;;;;;;24.78;52.86;100711.56;5587121;31;34269;-68
2023/10/03 14:14:06;;;;;;;14.07;3.20;;;;;;;24.70;51.69;100712.81;5586973;31;34725;-68
2023/10/03 14:17:12;;;;;;;9.75;2.83;;;;;;;24.65;52.71;100716.28;5586487;31;34623;-68